Smithville, Tennessee
Current Conditions -  °F | °C
As of 12:55 AM on Monday 24 Nov 2014 (Local Time) from KSRB Reporting Station
Overcast Overcast  
Wind Chill: 63°   Ceiling: 4800
Heat Index: 63°   Visibility: 10mi
Dew Point: 55°   Wind: 18mph
Humidity: 77%   Direction: 220°SW
Pressure: 29.54"   Gusts: NA
Location:  35.96°N, 85.81°W
Report Text: KSRB 240655Z AUTO 22016KT 10SM SCT028 SCT033 OVC048 17/13 A2954 RMK
Loading
Personal Weather Stations






























Interactive Weather Map New forecast layout! Learn more

10-Day Weather Forecast

Advertisements
Track Severe Weather on mobile